ADDS METAR Data INFO
IDs: Format: Raw Decoded Include TAF

Data at: 2031 UTC 20 Jul 2018

KLWC 201952Z AUTO 00000KT 10SM FEW041 SCT090 SCT110 28/19 A2991 RMK AO2 LTG DSNT SE AND S RAB35E47 SLP119 P0000 T02830194
KLWC 201852Z AUTO 00000KT 10SM FEW075 SCT095 BKN110 30/22 A2992 RMK AO2 RAE02 SLP122 P0000 T03000222
KLWC 201752Z AUTO 36005KT 9SM -RA FEW043 FEW065 SCT110 30/18 A2992 RMK AO2 RAB49 SLP125 P0001 60001 T03000183 10350 20200 53013
KLWC 201652Z AUTO 03004KT 10SM CLR 34/17 A2988 RMK AO2 SLP109 T03390172
KLWC 201552Z AUTO 06006KT 10SM CLR 33/19 A2988 RMK AO2 SLP110 T03280189
KLWC 201452Z AUTO 00000KT 10SM CLR 31/18 A2989 RMK AO2 SLP111 T03110183 50001
KLWC 201352Z AUTO 00000KT 10SM CLR 28/20 A2989 RMK AO2 SLP113 T02780200
KLWC 201252Z AUTO 00000KT 10SM CLR 24/20 A2989 RMK AO2 SLP114 T02440200
KLWC 201152Z AUTO 00000KT 10SM CLR 20/19 A2988 RMK AO2 SLP112 T02000189 10217 20189 53011
KLWC 201052Z AUTO 00000KT 10SM CLR 19/18 A2987 RMK AO2 SLP108 T01940183
KLWC 200952Z AUTO 32005KT 10SM CLR 20/19 A2986 RMK AO2 SLP103 T02000189
KLWC 200852Z AUTO 33007KT 10SM CLR 20/19 A2985 RMK AO2 SLP101 T02000189 50000
KLWC 200752Z AUTO 00000KT 10SM SCT070 20/19 A2986 RMK AO2 SLP101 T02000194
KLWC 200652Z AUTO 02003KT 10SM CLR 20/19 A2986 RMK AO2 SLP101 T02000189
KLWC 200552Z AUTO 00000KT 10SM CLR 22/19 A2985 RMK AO2 SLP097 T02170194 10283 20206 403830206 50001
KLWC 200452Z AUTO 34003KT 10SM CLR 21/19 A2986 RMK AO2 SLP101 T02110194
KLWC 200352Z AUTO 23006KT 10SM CLR 22/19 A2986 RMK AO2 SLP102 T02170194
KLWC 200252Z AUTO 16003KT 10SM CLR 23/19 A2985 RMK AO2 SLP097 T02280194 53009
KLWC 200152Z AUTO 19004KT 10SM CLR 25/20 A2983 RMK AO2 SLP093 T02500200
KLWC 200052Z AUTO 16006KT 10SM CLR 28/22 A2982 RMK AO2 SLP088 T02780217
KLWC 192352Z AUTO 18010KT 10SM CLR 28/21 A2982 RMK AO2 SLP089 60000 T02830206 10383 20244 55013
KLWC 192252Z AUTO 26004KT 10SM CLR 29/19 A2980 RMK AO2 SLP083 T02940194
KLWC 192152Z AUTO 30004KT 10SM CLR 27/21 A2981 RMK AO2 PK WND 27032/2058 LTG DSNT SE AND S RAB02E12 SLP086 P0000 T02720206
KLWC 192111Z AUTO 31012G27KT 10SM -RA SCT060 SCT080 BKN100 24/20 A2982 RMK AO2 PK WND 27032/2058 LTG DSNT SE-W RAB02 PRESFR P0000 T02440200
KLWC 192051Z AUTO 28025G51KT 6SM VCTS HZ SQ SCT065 BKN075 29/19 A2986 RMK AO2 PK WND 28051/2046 LTG DSNT S-NW SLP103 T02890194 53015
KLWC 192050Z AUTO 29027G51KT 6SM VCTS HZ SQ SCT065 BKN075 29/19 A2986 RMK AO2 PK WND 28051/2046 LTG DSNT S-NW PRESRR
KLWC 191952Z AUTO 27008KT 10SM CLR 36/22 A2980 RMK AO2 LTG DSNT S AND SW SLP079 T03560217
KLWC 191852Z AUTO 30008KT 10SM CLR 38/22 A2980 RMK AO2 SLP080 T03830217
KLWC 191752Z AUTO 32009KT 10SM CLR 37/23 A2981 RMK AO2 SLP084 T03720228 10372 20233 56008
KLWC 191652Z AUTO 26010G15KT 10SM CLR 36/22 A2982 RMK AO2 SLP088 T03610222
KLWC 191552Z AUTO 24009KT 10SM CLR 34/23 A2982 RMK AO2 SLP089 T03440233
KLWC 191452Z AUTO 22007KT 10SM CLR 32/24 A2984 RMK AO2 SLP093 T03170239 58011
KLWC 191352Z AUTO 23007KT 10SM CLR 29/24 A2985 RMK AO2 SLP099 T02890239
KLWC 191252Z AUTO 14003KT 9SM CLR 26/23 A2987 RMK AO2 SLP105 T02560233
KLWC 191152Z AUTO 00000KT 7SM SCT038 23/23 A2987 RMK AO2 SLP106 T02330228 10250 20228 55002
KLWC 191052Z AUTO 14005KT 10SM FEW070 23/23 A2985 RMK AO2 SLP099 T02330228
KLWC 190952Z AUTO 12004KT 10SM CLR 23/22 A2987 RMK AO2 SLP106 T02280222
KLWC 190852Z AUTO 15005KT 10SM BKN075 23/22 A2988 RMK AO2 SLP108 T02280222 56006